Stations météo

réclame
Mon MeteoGroup
Gemini, Pays-Bas (6214): Température de l'air & dewpoint: 10.08.2018 21:00:00 - 16.08.2018 21:00:00 (CEST)Gemini, Pays-Bas (6214): Vitesse du vent & gusts: 10.08.2018 21:00:00 - 16.08.2018 21:00:00 (CEST)Gemini, Pays-Bas (6214): Direction du vent: 10.08.2018 21:00:00 - 16.08.2018 21:00:00 (CEST)Gemini, Pays-Bas (6214): reduced air pressure: 10.08.2018 21:00:00 - 16.08.2018 21:00:00 (CEST)
Date & Time tt [°C] td [°C] ff [km/h] ff [knt] fx [km/h] fx [knt] dd ppp [hPa]
16.08.2018 21:00:00 19,1 14,4 31 17 40 21 SW 1013,4
16.08.2018 20:00:00 18,8 14,2 26 14 32 18 SSW 1012,6
16.08.2018 19:00:00 18,8 13,8 21 11 29 16 SW 1013,4
16.08.2018 18:00:00 18,1 14,0 18 10 22 12 SW 1013,7
16.08.2018 17:00:00 16,8 15,1 21 11 40 21 WNW 1013,2
16.08.2018 16:00:00 18,9 16,3 44 24 50 27 WSW 1013,3
16.08.2018 15:00:00 19,3 16,3 42 23 47 25 SW 1013,0
16.08.2018 14:00:00 19,3 15,9 46 25 47 25 SW 1013,1
16.08.2018 13:00:00 19,5 14,9 39 21 47 25 SW 1013,3
16.08.2018 12:00:00 18,7 16,4 37 20 47 25 SW 1013,3
16.08.2018 11:00:00 18,8 16,3 41 22 47 25 SW 1013,3
16.08.2018 10:00:00 18,6 16,6 42 23 47 25 SSW 1013,0
16.08.2018 09:00:00 18,7 16,5 42 23 43 23 SSW 1013,4
16.08.2018 08:00:00 18,6 16,6 37 20 43 23 SSW 1013,1
16.08.2018 07:00:00 19,3 16,2 37 20 40 21 SW 1013,8
16.08.2018 06:00:00 19,2 16,3 35 19 43 23 SW 1013,7
16.08.2018 05:00:00 19,2 15,9 35 19 40 21 SW 1014,0
16.08.2018 04:00:00 19,4 16,2 39 21 43 23 SW 1014,5
16.08.2018 03:00:00 19,4 16,5 35 19 40 21 SW 1014,7
16.08.2018 02:00:00 19,7 15,9 31 17 36 19 SW 1015,4
16.08.2018 01:00:00 19,6 15,9 29 16 36 19 SW 1015,9
16.08.2018 00:00:00 19,4 15,5 28 15 40 21 SW 1016,2
15.08.2018 23:00:00 19,3 16,1 31 17 36 19 SW 1016,4
15.08.2018 22:00:00 19,2 15,9 29 16 36 19 SW 1016,3
15.08.2018 21:00:00 19,3 15,2 29 16 43 23 WSW 1016,4
15.08.2018 20:00:00 19,1 15,3 31 17 40 21 WSW 1016,4
15.08.2018 19:00:00 19,2 15,6 28 15 40 21 WSW 1016,5
15.08.2018 18:00:00 19,8 16,1 34 18 40 21 WSW 1016,7
15.08.2018 17:00:00 19,8 17,1 22 12 32 18 WSW 1016,7
15.08.2018 16:00:00 20,1 16,7 21 11 29 16 WSW 1016,6
15.08.2018 15:00:00 19,9 16,5 22 12 25 14 SW 1016,7
15.08.2018 14:00:00 20,1 15,9 22 12 25 14 SW 1016,7
15.08.2018 13:00:00 19,8 15,6 22 12 25 14 SW 1016,6
15.08.2018 12:00:00 20,0 15,4 15 8 22 12 WSW 1016,6
15.08.2018 11:00:00 20,1 15,4 15 8 18 10 WSW 1016,3
15.08.2018 10:00:00 19,6 15,3 11 6 18 10 W 1016,0
15.08.2018 09:00:00 20,0 15,8 16 9 22 12 W 1015,7
15.08.2018 08:00:00 19,3 15,8 16 9 22 12 W 1015,3
15.08.2018 07:00:00 19,4 15,8 16 9 25 14 W 1015,0
15.08.2018 06:00:00 19,4 15,4 22 12 29 16 W 1014,8
15.08.2018 05:00:00 19,0 15,7 24 13 29 16 W 1015,0
15.08.2018 04:00:00 19,1 15,3 22 12 25 14 W 1015,2
15.08.2018 03:00:00 18,6 15,5 21 11 25 14 W 1015,1
15.08.2018 02:00:00 18,5 14,6 22 12 25 14 W 1015,4
15.08.2018 01:00:00 18,4 14,4 22 12 25 14 W 1015,2
15.08.2018 00:00:00 18,2 15,3 22 12 25 14 W 1015,2
14.08.2018 23:00:00 18,3 14,7 21 11 25 14 W 1015,1
14.08.2018 22:00:00 18,3 14,4 18 10 25 14 W 1015,3
14.08.2018 21:00:00 18,4 14,2 21 11 25 14 WNW 1015,0
14.08.2018 20:00:00 18,5 13,6 21 11 25 14 WNW 1014,4
14.08.2018 19:00:00 18,5 13,4 26 14 36 19 NW 1014,1
14.08.2018 18:00:00 18,6 13,3 29 16 36 19 NW 1013,8
14.08.2018 17:00:00 18,7 13,1 35 19 40 21 NW 1013,5
14.08.2018 16:00:00 18,6 13,7 31 17 40 21 NNW 1012,9
14.08.2018 15:00:00 18,5 14,2 41 22 43 23 NNW 1012,3
14.08.2018 14:00:00 18,5 15,2 31 17 36 19 NNW 1011,2
14.08.2018 13:00:00 18,4 16,6 28 15 40 21 NNW 1010,2
14.08.2018 12:00:00 18,6 16,8 35 19 36 19 NW 1009,6
14.08.2018 11:00:00 18,6 16,1 26 14 29 16 NW 1009,2
14.08.2018 10:00:00 18,5 15,1 28 15 40 21 NNW 1008,6
14.08.2018 09:00:00 17,4 16,3 39 21 47 25 NNW 1007,9
14.08.2018 08:00:00 19,1 16,5 15 8 22 12 N 1006,9
14.08.2018 07:00:00 17,7 16,7 24 13 29 16 N 1005,9
14.08.2018 06:00:00 18,0 16,5 18 10 29 16 WNW 1005,5
14.08.2018 05:00:00 18,5 16,4 15 8 18 10 W 1005,4
14.08.2018 04:00:00 18,2 16,2 15 8 18 10 W 1005,4
14.08.2018 03:00:00 18,0 16,2 16 9 22 12 W 1005,3
14.08.2018 02:00:00 18,1 16,0 18 10 25 14 W 1005,3
14.08.2018 01:00:00 18,4 15,8 13 7 18 10 W 1005,3
14.08.2018 00:00:00 18,5 15,5 13 7 18 10 WNW 1005,3
13.08.2018 23:00:00 18,7 15,7 16 9 18 10 W 1005,0
13.08.2018 22:00:00 18,9 15,6 21 11 22 12 NW 1004,9
13.08.2018 21:00:00 19,1 16,4 21 11 22 12 NW 1004,7
13.08.2018 20:00:00 18,7 14,9 13 7 14 8 SSW 1004,2
13.08.2018 19:00:00 19,0 14,8 9 5 14 8 S 1004,0
13.08.2018 18:00:00 19,4 15,5 5 3 11 6 S 1004,1
13.08.2018 17:00:00 19,6 15,6 2 1 7 4 - 1004,2
13.08.2018 16:00:00 19,6 15,1 5 3 14 8 ESE 1004,2
13.08.2018 15:00:00 19,6 15,2 4 2 18 10 - 1004,5
13.08.2018 14:00:00 19,7 15,1 9 5 18 10 S 1004,4
13.08.2018 13:00:00 19,7 15,1 21 11 22 12 S 1004,9
13.08.2018 12:00:00 20,1 15,3 15 8 18 10 S 1004,9
13.08.2018 11:00:00 20,0 16,5 9 5 18 10 S 1005,0
13.08.2018 10:00:00 20,2 16,7 11 6 14 8 S 1005,0
13.08.2018 09:00:00 20,2 15,5 8 4 22 12 - 1005,2
13.08.2018 08:00:00 20,5 12,9 11 6 14 8 SE 1005,3
13.08.2018 07:00:00 20,0 15,5 11 6 14 8 SSE 1005,3
13.08.2018 06:00:00 19,7 16,8 9 5 11 6 ESE 1005,6
13.08.2018 05:00:00 20,0 15,0 8 4 14 8 SW 1006,4
13.08.2018 04:00:00 20,2 15,3 16 9 18 10 SSW 1007,1
13.08.2018 03:00:00 19,9 16,3 8 4 11 6 SSW 1007,3
13.08.2018 02:00:00 19,9 15,6 8 4 14 8 WSW 1007,8
13.08.2018 01:00:00 20,2 15,7 9 5 14 8 WSW 1008,3
13.08.2018 00:00:00 20,4 15,9 13 7 25 14 SW 1008,6
12.08.2018 23:00:00 21,1 14,5 22 12 25 14 W 1009,0
12.08.2018 22:00:00 20,8 15,3 18 10 25 14 WSW 1009,2
12.08.2018 21:00:00 20,7 15,4 18 10 29 16 WSW 1009,4
12.08.2018 20:00:00 20,8 15,1 26 14 32 18 WSW 1009,9
12.08.2018 19:00:00 20,7 15,3 35 19 40 21 WSW 1010,4
12.08.2018 18:00:00 20,7 15,4 41 22 43 23 WSW 1010,8
12.08.2018 17:00:00 20,4 15,2 42 23 43 23 SW 1011,0
12.08.2018 16:00:00 20,5 15,4 44 24 47 25 SW 1011,5
12.08.2018 15:00:00 20,5 14,9 41 22 47 25 SW 1012,0
12.08.2018 14:00:00 19,8 14,2 39 21 43 23 SW 1012,6
12.08.2018 13:00:00 18,9 14,1 34 18 43 23 SSW 1012,9
12.08.2018 12:00:00 16,9 14,7 28 15 32 18 S 1013,4
12.08.2018 11:00:00 15,4 13,7 35 19 43 23 SSW 1014,0
12.08.2018 10:00:00 16,6 10,9 29 16 50 27 SSW 1014,5
12.08.2018 09:00:00 17,6 11,0 35 19 40 21 SSW 1015,1
12.08.2018 08:00:00 17,5 11,7 31 17 36 19 SW 1015,6
12.08.2018 07:00:00 17,5 10,7 26 14 32 18 SW 1015,9
12.08.2018 06:00:00 17,5 10,1 26 14 32 18 SW 1016,5
12.08.2018 05:00:00 17,6 10,3 21 11 29 16 WSW 1016,8
12.08.2018 04:00:00 17,4 10,2 15 8 25 14 WSW 1017,3
12.08.2018 03:00:00 17,1 10,6 22 12 29 16 W 1017,8
12.08.2018 02:00:00 17,1 9,4 22 12 29 16 W 1018,5
12.08.2018 01:00:00 17,0 9,0 24 13 29 16 W 1018,9
12.08.2018 00:00:00 16,8 9,1 22 12 29 16 W 1019,5
11.08.2018 23:00:00 16,8 10,1 24 13 29 16 W 1019,9
11.08.2018 22:00:00 16,9 11,0 28 15 32 18 W 1020,2
11.08.2018 21:00:00 17,0 10,8 29 16 32 18 W 1020,0
11.08.2018 20:00:00 17,4 11,3 31 17 32 18 W 1019,9
11.08.2018 19:00:00 17,5 12,4 28 15 32 18 NW 1019,9
11.08.2018 18:00:00 17,5 11,6 31 17 36 19 WNW 1020,1
11.08.2018 17:00:00 18,0 10,9 28 15 32 18 WNW 1019,8
11.08.2018 16:00:00 17,8 10,2 29 16 32 18 NW 1019,6
11.08.2018 15:00:00 17,7 11,1 31 17 36 19 NW 1019,6
11.08.2018 14:00:00 17,6 10,2 35 19 40 21 NW 1018,9
11.08.2018 13:00:00 16,8 10,5 29 16 47 25 NW 1018,7
11.08.2018 12:00:00 17,4 11,2 26 14 32 18 W 1018,3
11.08.2018 11:00:00 17,0 9,9 29 16 40 21 WNW 1018,0
11.08.2018 10:00:00 16,5 10,9 31 17 47 25 NW 1017,3
11.08.2018 09:00:00 15,3 9,9 39 21 50 27 NNW 1016,4
11.08.2018 08:00:00 13,7 11,0 31 17 47 25 NNW 1016,2
11.08.2018 07:00:00 14,3 10,8 39 21 47 25 WNW 1015,4
11.08.2018 06:00:00 15,3 10,3 29 16 40 21 W 1015,1
11.08.2018 05:00:00 15,3 10,7 29 16 36 19 WNW 1014,6
11.08.2018 04:00:00 15,2 10,2 42 23 47 25 WNW 1014,7
11.08.2018 03:00:00 15,9 10,8 37 20 40 21 W 1015,0
11.08.2018 02:00:00 15,9 10,5 28 15 40 21 W 1015,1
11.08.2018 01:00:00 15,4 12,6 35 19 47 25 W 1015,1
11.08.2018 00:00:00 15,6 11,2 42 23 72 39 W 1015,2
10.08.2018 23:00:00 16,8 13,6 68 37 72 39 S 1015,0
10.08.2018 22:00:00 15,9 12,9 24 13 36 19 S 1015,4
10.08.2018 21:00:00 14,8 12,7 61 33 61 33 W 1017,5

tt = Température de l'air
td = dewpoint
ff = Vitesse du vent
fx = gusts
dd = Direction du vent
ppp = reduced air pressure

stations d'obs. à proximité